createdAt,value
2018-12-11T00:00:08.140Z,5.67
2018-12-11T00:02:37.333Z,4.95
2018-12-11T00:05:06.529Z,6.53
2018-12-11T00:07:35.752Z,4.72
2018-12-11T00:10:05.754Z,7.03
2018-12-11T00:12:35.760Z,5.92
2018-12-11T00:15:05.551Z,7.87
2018-12-11T00:17:34.634Z,9.48
2018-12-11T00:20:04.335Z,4.47
2018-12-11T00:22:34.564Z,6.37
2018-12-11T00:25:03.892Z,6.10
2018-12-11T00:27:33.833Z,5.90
2018-12-11T00:30:04.156Z,4.60
2018-12-11T00:32:33.829Z,4.42
2018-12-11T00:35:03.059Z,4.15
2018-12-11T00:37:34.189Z,4.65
2018-12-11T00:40:03.655Z,4.30
2018-12-11T00:42:32.848Z,5.50
2018-12-11T00:45:02.050Z,5.67
2018-12-11T00:47:32.188Z,6.12
2018-12-11T00:50:01.219Z,5.75
2018-12-11T00:52:30.799Z,3.95
2018-12-11T00:55:01.363Z,4.10
2018-12-11T00:57:31.032Z,6.15
2018-12-11T01:00:01.597Z,5.45
2018-12-11T01:02:30.702Z,5.60
2018-12-11T01:05:00.688Z,7.62
2018-12-11T01:07:29.891Z,5.25
2018-12-11T01:09:58.966Z,6.30
2018-12-11T01:12:28.241Z,5.95
2018-12-11T01:14:57.293Z,6.53
2018-12-11T01:17:27.142Z,5.90
2018-12-11T01:19:57.532Z,3.47
2018-12-11T01:22:28.315Z,3.72
2018-12-11T01:24:57.396Z,3.95
2018-12-11T01:27:27.536Z,8.03
2018-12-11T01:29:56.595Z,7.70
2018-12-11T01:32:26.459Z,4.60
2018-12-11T01:34:55.820Z,4.75
2018-12-11T01:37:24.891Z,2.40
2018-12-11T01:39:54.876Z,5.22
2018-12-11T01:42:23.969Z,9.05
2018-12-11T01:44:53.409Z,5.60
2018-12-11T01:47:22.679Z,4.53
2018-12-11T01:49:52.337Z,7.55
2018-12-11T01:52:22.295Z,4.62
2018-12-11T01:54:52.525Z,3.25
2018-12-11T01:57:22.112Z,5.75
2018-12-11T01:59:51.408Z,4.75
2018-12-11T02:02:20.466Z,5.30
2018-12-11T02:04:49.556Z,3.17
2018-12-11T02:07:19.850Z,4.95
2018-12-11T02:09:49.043Z,5.67
2018-12-11T02:12:18.962Z,3.17
2018-12-11T02:14:48.768Z,3.90
2018-12-11T02:17:18.027Z,2.75
2018-12-11T02:19:47.119Z,3.87
2018-12-11T02:22:17.602Z,2.12
2018-12-11T02:24:46.819Z,4.20
2018-12-11T02:27:16.800Z,2.42
2018-12-11T02:29:45.910Z,3.75
2018-12-11T02:32:16.626Z,3.67
2018-12-11T02:34:45.708Z,2.62
2018-12-11T02:37:14.938Z,3.42
2018-12-11T02:39:44.027Z,4.05
2018-12-11T02:42:13.139Z,4.40
2018-12-11T02:44:42.391Z,4.87
2018-12-11T02:47:12.151Z,4.95
2018-12-11T02:49:41.216Z,3.00
2018-12-11T02:52:11.031Z,3.37
2018-12-11T02:54:40.849Z,4.20
2018-12-11T02:57:10.399Z,3.08
2018-12-11T02:59:39.455Z,2.75
2018-12-11T03:02:08.710Z,2.70
2018-12-11T03:04:37.933Z,4.40
2018-12-11T03:07:07.224Z,4.12
2018-12-11T03:09:36.381Z,3.90
2018-12-11T03:12:06.257Z,5.65
2018-12-11T03:14:36.090Z,3.85
2018-12-11T03:17:05.140Z,4.00
2018-12-11T03:19:34.284Z,2.47
2018-12-11T03:22:04.271Z,3.33
2018-12-11T03:24:33.943Z,4.47
2018-12-11T03:27:03.996Z,4.83
2018-12-11T03:29:33.316Z,5.65
2018-12-11T03:32:03.721Z,2.45
2018-12-11T03:34:32.797Z,2.83
2018-12-11T03:37:01.886Z,3.10
2018-12-11T03:39:31.061Z,2.50
2018-12-11T03:42:01.661Z,3.52
2018-12-11T03:44:31.408Z,3.35
2018-12-11T03:47:01.194Z,2.92
2018-12-11T03:49:30.577Z,2.60
2018-12-11T03:52:00.997Z,2.25
2018-12-11T03:54:30.921Z,4.67
2018-12-11T03:57:00.829Z,2.98
2018-12-11T03:59:30.018Z,3.40
2018-12-11T04:01:59.826Z,2.77
2018-12-11T04:04:28.945Z,3.62
2018-12-11T04:06:58.243Z,4.75
2018-12-11T04:09:28.221Z,4.58
2018-12-11T04:11:57.401Z,4.22
2018-12-11T04:14:26.567Z,3.00
2018-12-11T04:16:55.639Z,4.60
2018-12-11T04:19:24.709Z,1.92
2018-12-11T04:21:53.838Z,2.72
2018-12-11T04:24:23.467Z,6.20
2018-12-11T04:26:54.002Z,3.05
2018-12-11T04:29:23.131Z,3.40
2018-12-11T04:31:53.383Z,2.70
2018-12-11T04:34:22.575Z,2.35
2018-12-11T04:36:52.505Z,2.35
2018-12-11T04:39:22.822Z,2.45
2018-12-11T04:41:51.960Z,2.40
2018-12-11T04:44:21.063Z,4.05
2018-12-11T04:46:50.541Z,3.70
2018-12-11T04:49:20.635Z,4.53
2018-12-11T04:51:51.172Z,3.22
2018-12-11T04:54:20.831Z,3.25
2018-12-11T04:56:50.407Z,3.27
2018-12-11T04:59:19.507Z,3.60
2018-12-11T05:01:48.679Z,3.80
2018-12-11T05:04:17.848Z,4.45
2018-12-11T05:06:47.284Z,3.77
2018-12-11T05:09:16.431Z,2.45
2018-12-11T05:11:45.524Z,2.15
2018-12-11T05:14:14.605Z,3.10
2018-12-11T05:16:43.711Z,4.20
2018-12-11T05:19:12.976Z,5.53
2018-12-11T05:21:42.120Z,3.77
2018-12-11T05:24:11.972Z,4.40
2018-12-11T05:26:41.623Z,3.50
2018-12-11T05:29:10.700Z,3.60
2018-12-11T05:31:40.792Z,3.83
2018-12-11T05:34:10.914Z,2.00
2018-12-11T05:36:40.033Z,1.67
2018-12-11T05:39:09.760Z,3.22
2018-12-11T05:41:38.839Z,2.77
2018-12-11T05:44:08.792Z,3.98
2018-12-11T05:46:38.612Z,3.65
2018-12-11T05:49:07.750Z,3.45
2018-12-11T05:51:36.836Z,2.85
2018-12-11T05:54:06.951Z,4.67
2018-12-11T05:56:36.763Z,2.35
2018-12-11T05:59:05.876Z,2.10
2018-12-11T06:01:34.944Z,1.75
2018-12-11T06:04:04.359Z,2.50
2018-12-11T06:06:33.436Z,4.50
2018-12-11T06:09:03.188Z,3.17
2018-12-11T06:11:32.299Z,3.33
2018-12-11T06:14:01.364Z,8.68
2018-12-11T06:16:31.036Z,8.20
2018-12-11T06:19:00.159Z,6.17
2018-12-11T06:21:29.695Z,4.12
2018-12-11T06:23:59.380Z,6.17
2018-12-11T06:26:29.987Z,6.28
2018-12-11T06:28:59.059Z,6.20
2018-12-11T06:31:28.800Z,6.67
2018-12-11T06:33:58.349Z,8.43
2018-12-11T06:36:27.873Z,7.45
2018-12-11T06:38:57.027Z,4.37
2018-12-11T06:41:26.095Z,5.58
2018-12-11T06:43:56.020Z,8.48
2018-12-11T06:46:25.922Z,8.03
2018-12-11T06:48:55.720Z,6.22
2018-12-11T06:51:25.133Z,6.75
2018-12-11T06:53:54.908Z,5.65
2018-12-11T06:56:25.283Z,7.65
2018-12-11T06:58:55.194Z,3.85
2018-12-11T07:01:24.409Z,6.10
2018-12-11T07:03:53.971Z,6.12
2018-12-11T07:06:23.127Z,6.30
2018-12-11T07:08:52.330Z,4.90
2018-12-11T07:11:21.576Z,4.28
2018-12-11T07:13:51.637Z,3.55
2018-12-11T07:16:21.893Z,6.47
2018-12-11T07:18:52.071Z,3.83
2018-12-11T07:21:21.135Z,5.28
2018-12-11T07:23:50.272Z,4.20
2018-12-11T07:26:19.392Z,5.58
2018-12-11T07:28:48.964Z,3.55
2018-12-11T07:31:18.078Z,7.60
2018-12-11T07:33:50.879Z,4.22
2018-12-11T07:36:18.683Z,4.83
2018-12-11T07:38:47.811Z,5.05
2018-12-11T07:41:16.980Z,5.67
2018-12-11T07:43:46.296Z,5.70
2018-12-11T07:46:15.555Z,4.28
2018-12-11T07:48:44.839Z,3.55
2018-12-11T07:51:13.899Z,3.83
2018-12-11T07:53:44.023Z,3.45
2018-12-11T07:56:14.024Z,3.15
2018-12-11T07:58:43.674Z,3.00
2018-12-11T08:01:13.870Z,3.62
2018-12-11T08:03:43.428Z,4.22
2018-12-11T08:06:12.518Z,5.17
2018-12-11T08:08:42.531Z,4.22
2018-12-11T08:11:12.488Z,3.92
2018-12-11T08:13:42.417Z,4.80
2018-12-11T08:16:13.159Z,4.70
2018-12-11T08:18:42.283Z,4.47
2018-12-11T08:21:11.396Z,4.75
2018-12-11T08:23:40.655Z,4.67
2018-12-11T08:26:09.807Z,6.05
2018-12-11T08:28:39.779Z,3.65
2018-12-11T08:31:08.958Z,4.37
2018-12-11T08:33:38.110Z,5.90
2018-12-11T08:36:07.705Z,4.58
2018-12-11T08:38:37.015Z,2.55
2018-12-11T08:41:06.972Z,3.92
2018-12-11T08:43:36.256Z,3.95
2018-12-11T08:46:06.379Z,6.83
2018-12-11T08:48:35.475Z,3.62
2018-12-11T08:51:04.585Z,4.55
2018-12-11T08:53:34.666Z,4.05
2018-12-11T08:56:04.923Z,5.47
2018-12-11T08:58:34.628Z,3.37
2018-12-11T09:01:03.951Z,4.58
2018-12-11T09:03:35.415Z,4.42
2018-12-11T09:06:04.974Z,2.67
2018-12-11T09:08:34.189Z,2.85
2018-12-11T09:11:04.005Z,6.75
2018-12-11T09:13:33.527Z,2.02
2018-12-11T09:16:04.258Z,6.08
2018-12-11T09:18:33.323Z,5.17
2018-12-11T09:21:02.397Z,2.92
2018-12-11T09:23:31.634Z,3.75
2018-12-11T09:26:00.820Z,3.87
2018-12-11T09:28:31.353Z,2.47
2018-12-11T09:31:00.556Z,3.85
2018-12-11T09:33:31.076Z,3.98
2018-12-11T09:36:00.337Z,2.72
2018-12-11T09:38:30.152Z,4.72
2018-12-11T09:40:59.276Z,4.65
2018-12-11T09:43:29.082Z,3.40
2018-12-11T09:45:58.427Z,3.90
2018-12-11T09:48:28.274Z,3.98
2018-12-11T09:50:58.112Z,3.08
2018-12-11T09:53:28.260Z,4.47
2018-12-11T09:55:58.048Z,2.42
2018-12-11T09:58:28.759Z,2.72
2018-12-11T10:01:01.839Z,5.50
2018-12-11T10:03:31.795Z,3.98
2018-12-11T10:06:01.028Z,3.30
2018-12-11T10:08:30.116Z,2.15
2018-12-11T10:10:59.224Z,2.98
2018-12-11T10:13:28.299Z,2.47
2018-12-11T10:15:58.157Z,3.35
2018-12-11T10:18:28.335Z,3.65
2018-12-11T10:20:58.256Z,2.42
2018-12-11T10:23:31.811Z,2.80
2018-12-11T10:25:58.724Z,3.67
2018-12-11T10:28:28.737Z,3.45
2018-12-11T10:30:57.816Z,3.45
2018-12-11T10:33:27.021Z,3.08
2018-12-11T10:35:56.166Z,3.62
2018-12-11T10:38:25.892Z,2.10
2018-12-11T10:40:55.875Z,2.42
2018-12-11T10:43:25.507Z,2.75
2018-12-11T10:45:54.676Z,4.20
2018-12-11T10:48:24.530Z,2.42
2018-12-11T10:50:54.332Z,6.90
2018-12-11T10:53:24.273Z,5.50
2018-12-11T10:55:54.988Z,7.03
2018-12-11T10:58:24.512Z,4.53
2018-12-11T11:00:58.971Z,4.47
2018-12-11T11:03:28.590Z,1.92
2018-12-11T11:05:57.648Z,2.60
2018-12-11T11:08:27.704Z,2.85
2018-12-11T11:10:57.436Z,2.12
2018-12-11T11:13:26.520Z,2.95
2018-12-11T11:15:55.726Z,3.87
2018-12-11T11:18:26.141Z,4.70
2018-12-11T11:20:55.305Z,1.90
2018-12-11T11:23:25.201Z,2.67
2018-12-11T11:25:54.452Z,3.20
2018-12-11T11:28:25.199Z,2.72
2018-12-11T11:30:54.689Z,3.87
2018-12-11T11:33:24.155Z,3.08
2018-12-11T11:35:54.514Z,3.92
2018-12-11T11:38:23.621Z,4.10
2018-12-11T11:40:52.763Z,3.50
2018-12-11T11:43:22.784Z,3.67
2018-12-11T11:45:51.884Z,4.70
2018-12-11T11:48:20.995Z,9.08
2018-12-11T11:50:50.363Z,4.08
2018-12-11T11:53:21.369Z,5.97
2018-12-11T11:55:51.916Z,4.03
2018-12-11T11:58:21.928Z,4.17
2018-12-11T12:00:52.127Z,3.52
2018-12-11T12:03:22.561Z,4.25
2018-12-11T12:05:52.279Z,3.77
2018-12-11T12:08:21.575Z,4.47
2018-12-11T12:10:50.728Z,3.67
2018-12-11T12:13:19.874Z,2.35
2018-12-11T12:15:49.035Z,4.42
2018-12-11T12:18:18.988Z,2.45
2018-12-11T12:20:48.092Z,3.65
2018-12-11T12:23:17.269Z,3.45
2018-12-11T12:25:46.454Z,2.55
2018-12-11T12:28:15.960Z,2.20
2018-12-11T12:30:45.670Z,1.57
2018-12-11T12:33:15.509Z,3.70
2018-12-11T12:35:44.572Z,2.90
2018-12-11T12:38:14.574Z,3.67
2018-12-11T12:40:44.532Z,2.27
2018-12-11T12:43:13.656Z,3.10
2018-12-11T12:45:42.819Z,2.67
2018-12-11T12:48:12.172Z,3.15
2018-12-11T12:50:41.356Z,2.22
2018-12-11T12:53:11.860Z,3.62
2018-12-11T12:55:41.871Z,3.35
2018-12-11T12:58:11.709Z,4.25
2018-12-11T13:00:40.784Z,3.52
2018-12-11T13:03:10.429Z,4.22
2018-12-11T13:05:39.646Z,2.30
2018-12-11T13:08:08.800Z,3.08
2018-12-11T13:10:37.967Z,4.12
2018-12-11T13:13:07.086Z,1.52
2018-12-11T13:15:36.224Z,1.85
2018-12-11T13:18:05.884Z,2.42
2018-12-11T13:20:34.968Z,2.00
2018-12-11T13:23:04.052Z,2.37
2018-12-11T13:25:33.207Z,1.60
2018-12-11T13:28:03.452Z,3.02
2018-12-11T13:30:34.066Z,3.25
2018-12-11T13:33:03.212Z,1.75
2018-12-11T13:35:32.281Z,2.40
2018-12-11T13:38:01.454Z,1.87
2018-12-11T13:40:30.879Z,2.25
2018-12-11T13:43:01.672Z,1.77
2018-12-11T13:45:30.803Z,2.80
2018-12-11T13:47:59.967Z,2.47
2018-12-11T13:50:29.198Z,1.05
2018-12-11T13:52:59.291Z,2.75
2018-12-11T13:55:29.176Z,4.37
2018-12-11T13:57:59.324Z,1.70
2018-12-11T14:00:28.387Z,2.65
2018-12-11T14:02:58.421Z,4.53
2018-12-11T14:05:27.635Z,2.75
2018-12-11T14:07:56.825Z,1.90
2018-12-11T14:10:26.007Z,2.12
2018-12-11T14:12:55.204Z,3.15
2018-12-11T14:15:25.441Z,3.30
2018-12-11T14:17:54.517Z,1.10
2018-12-11T14:20:23.620Z,2.15
2018-12-11T14:22:53.275Z,2.20
2018-12-11T14:25:23.337Z,2.27
2018-12-11T14:27:53.560Z,2.00
2018-12-11T14:30:22.718Z,2.50
2018-12-11T14:32:51.776Z,1.92
2018-12-11T14:35:21.452Z,2.30
2018-12-11T14:37:50.728Z,2.30
2018-12-11T14:40:20.296Z,1.17
2018-12-11T14:42:49.381Z,1.67
2018-12-11T14:45:18.592Z,2.37
2018-12-11T14:47:48.602Z,1.42
2018-12-11T14:50:17.746Z,2.75
2018-12-11T14:52:47.884Z,1.27
2018-12-11T14:55:17.810Z,2.58
2018-12-11T14:57:48.621Z,1.85
2018-12-11T15:00:17.990Z,1.87
2018-12-11T15:02:48.193Z,2.67
2018-12-11T15:05:18.559Z,1.12
2018-12-11T15:07:48.015Z,1.87
2018-12-11T15:10:17.169Z,1.52
2018-12-11T15:12:46.208Z,2.58
2018-12-11T15:15:16.055Z,1.45
2018-12-11T15:17:45.928Z,1.40
2018-12-11T15:20:14.999Z,1.65
2018-12-11T15:22:44.120Z,2.22
2018-12-11T15:25:13.220Z,2.58
2018-12-11T15:27:43.018Z,4.05
2018-12-11T15:30:12.088Z,1.75
2018-12-11T15:32:42.423Z,3.08
2018-12-11T15:35:11.511Z,1.15
2018-12-11T15:37:40.604Z,1.75
2018-12-11T15:40:09.690Z,2.02
2018-12-11T15:42:38.793Z,1.70
2018-12-11T15:45:08.154Z,1.60
2018-12-11T15:47:37.624Z,2.47
2018-12-11T15:50:07.281Z,2.05
2018-12-11T15:52:36.356Z,1.52
2018-12-11T15:55:06.741Z,2.45
2018-12-11T15:57:36.331Z,1.98
2018-12-11T16:00:07.335Z,3.08
2018-12-11T16:02:36.439Z,3.20
2018-12-11T16:05:06.669Z,2.20
2018-12-11T16:07:36.431Z,1.57
2018-12-11T16:10:07.357Z,2.33
2018-12-11T16:12:36.418Z,2.45
2018-12-11T16:15:05.800Z,2.20
2018-12-11T16:17:35.545Z,1.62
2018-12-11T16:20:05.306Z,1.98
2018-12-11T16:22:35.119Z,2.40
2018-12-11T16:25:04.612Z,1.40
2018-12-11T16:27:34.844Z,1.87
2018-12-11T16:30:04.503Z,2.52
2018-12-11T16:32:33.628Z,1.47
2018-12-11T16:35:03.173Z,5.70
2018-12-11T16:37:32.486Z,1.02
2018-12-11T16:40:04.604Z,2.40
2018-12-11T16:42:33.150Z,2.30
2018-12-11T16:45:02.410Z,2.15
2018-12-11T16:47:31.821Z,1.65
2018-12-11T16:50:00.901Z,1.35
2018-12-11T16:52:29.986Z,1.65
2018-12-11T16:54:59.641Z,2.12
2018-12-11T16:57:29.582Z,1.35
2018-12-11T16:59:59.407Z,1.75
2018-12-11T17:02:29.065Z,2.85
2018-12-11T17:04:58.588Z,2.20
2018-12-11T17:07:27.949Z,1.60
2018-12-11T17:09:57.434Z,2.67
2018-12-11T17:12:27.421Z,2.58
2018-12-11T17:14:58.509Z,2.37
2018-12-11T17:17:28.644Z,2.27
2018-12-11T17:19:58.190Z,3.90
2018-12-11T17:22:27.322Z,5.55
2018-12-11T17:24:57.744Z,2.90
2018-12-11T17:27:27.412Z,4.70
2018-12-11T17:29:57.264Z,2.52
2018-12-11T17:32:26.388Z,6.87
2018-12-11T17:34:56.127Z,5.03
2018-12-11T17:37:25.933Z,4.20
2018-12-11T17:39:56.734Z,4.95
2018-12-11T17:42:32.544Z,4.08
2018-12-11T17:45:03.757Z,2.15
2018-12-11T17:47:35.040Z,6.42
2018-12-11T17:50:07.398Z,4.35
2018-12-11T17:52:36.558Z,4.78
2018-12-11T17:55:06.485Z,4.83
2018-12-11T17:57:36.275Z,4.65
2018-12-11T18:00:07.111Z,4.35
2018-12-11T18:02:38.334Z,4.65
2018-12-11T18:05:07.771Z,4.62
2018-12-11T18:07:37.262Z,3.22
2018-12-11T18:10:07.357Z,5.80
2018-12-11T18:12:36.484Z,3.83
2018-12-11T18:15:05.886Z,5.30
2018-12-11T18:17:34.988Z,10.98
2018-12-11T18:20:04.815Z,11.20
2018-12-11T18:22:35.324Z,12.80
2018-12-11T18:25:05.480Z,6.92
2018-12-11T18:27:35.328Z,6.37
2018-12-11T18:30:06.097Z,6.53
2018-12-11T18:32:35.163Z,7.53
2018-12-11T18:35:06.612Z,9.98
2018-12-11T18:37:35.817Z,9.50
2018-12-11T18:40:07.133Z,6.15
2018-12-11T18:42:36.634Z,7.45
2018-12-11T18:45:06.629Z,8.88
2018-12-11T18:47:35.698Z,14.65
2018-12-11T18:50:06.859Z,8.78
2018-12-11T18:52:36.403Z,7.72
2018-12-11T18:55:07.067Z,20.12
2018-12-11T18:57:37.445Z,9.48
2018-12-11T19:00:08.604Z,11.12
2018-12-11T19:02:38.657Z,14.90
2018-12-11T19:05:07.855Z,10.70
2018-12-11T19:07:36.906Z,9.55
2018-12-11T19:10:06.672Z,11.50
2018-12-11T19:12:36.269Z,6.22
2018-12-11T19:15:06.122Z,9.15
2018-12-11T19:17:35.292Z,8.25
2018-12-11T19:20:05.172Z,7.70
2018-12-11T19:22:34.557Z,8.23
2018-12-11T19:25:06.551Z,11.30
2018-12-11T19:27:36.464Z,9.30
2018-12-11T19:30:06.565Z,7.25
2018-12-11T19:32:35.942Z,11.30
2018-12-11T19:35:05.685Z,11.33
2018-12-11T19:37:35.773Z,11.45
2018-12-11T19:40:07.411Z,15.93
2018-12-11T19:42:37.941Z,30.95
2018-12-11T19:45:07.886Z,19.73
2018-12-11T19:47:37.003Z,18.23
2018-12-11T19:50:07.675Z,23.65
2018-12-11T19:52:39.945Z,24.67
2018-12-11T19:55:08.972Z,22.98
2018-12-11T19:57:38.413Z,22.35
2018-12-11T20:00:08.308Z,29.37
2018-12-11T20:02:37.525Z,19.32
2018-12-11T20:05:06.848Z,20.12
2018-12-11T20:07:37.840Z,14.15
2018-12-11T20:10:13.400Z,19.05
2018-12-11T20:12:42.466Z,13.83
2018-12-11T20:15:11.954Z,13.20
2018-12-11T20:17:41.078Z,14.55
2018-12-11T20:20:21.554Z,15.20
2018-12-11T20:22:50.900Z,13.93
2018-12-11T20:25:20.175Z,16.57
2018-12-11T20:27:49.773Z,12.93
2018-12-11T20:30:19.009Z,12.75
2018-12-11T20:32:48.164Z,13.65
2018-12-11T20:35:17.899Z,12.25
2018-12-11T20:37:47.339Z,9.65
2018-12-11T20:40:17.558Z,12.63
2018-12-11T20:42:46.880Z,11.45
2018-12-11T20:45:15.935Z,11.57
2018-12-11T20:47:45.776Z,12.30
2018-12-11T20:50:15.526Z,11.40
2018-12-11T20:52:46.345Z,7.28
2018-12-11T20:55:15.691Z,10.58
2018-12-11T20:57:45.468Z,8.73
2018-12-11T21:00:14.700Z,9.25
2018-12-11T21:02:43.803Z,8.98
2018-12-11T21:05:13.010Z,10.60
2018-12-11T21:07:42.111Z,7.87
2018-12-11T21:10:12.061Z,9.10
2018-12-11T21:12:41.128Z,9.83
2018-12-11T21:15:10.338Z,12.37
2018-12-11T21:17:39.530Z,8.35
2018-12-11T21:20:08.766Z,10.60
2018-12-11T21:22:37.891Z,7.83
2018-12-11T21:25:07.161Z,9.43
2018-12-11T21:27:37.283Z,7.17
2018-12-11T21:30:09.224Z,7.37
2018-12-11T21:32:39.256Z,6.92
2018-12-11T21:35:09.811Z,9.03
2018-12-11T21:37:38.852Z,5.15
2018-12-11T21:40:08.225Z,11.45
2018-12-11T21:42:38.155Z,8.83
2018-12-11T21:45:07.537Z,8.15
2018-12-11T21:47:36.701Z,8.03
2018-12-11T21:50:07.744Z,9.35
2018-12-11T21:52:37.903Z,6.03
2018-12-11T21:55:08.383Z,10.93
2018-12-11T21:57:37.864Z,9.60
2018-12-11T22:00:09.885Z,8.28
2018-12-11T22:02:39.163Z,10.58
2018-12-11T22:05:08.462Z,6.78
2018-12-11T22:07:37.580Z,10.63
2018-12-11T22:10:06.978Z,11.05
2018-12-11T22:12:36.125Z,8.33
2018-12-11T22:15:05.848Z,9.43
2018-12-11T22:17:35.020Z,7.45
2018-12-11T22:20:05.676Z,11.33
2018-12-11T22:22:35.107Z,18.62
2018-12-11T22:25:05.195Z,22.85
2018-12-11T22:27:35.177Z,15.38
2018-12-11T22:30:04.681Z,12.40
2018-12-11T22:32:33.773Z,17.62
2018-12-11T22:35:03.181Z,14.00
2018-12-11T22:37:32.317Z,13.25
2018-12-11T22:40:01.951Z,20.65
2018-12-11T22:42:31.687Z,12.90
2018-12-11T22:45:00.764Z,8.75
2018-12-11T22:47:31.137Z,13.58
2018-12-11T22:50:00.987Z,13.20
2018-12-11T22:52:30.811Z,10.15
2018-12-11T22:55:00.527Z,10.05
2018-12-11T22:57:30.214Z,8.75
2018-12-11T22:59:59.572Z,9.23
2018-12-11T23:02:28.723Z,9.75
2018-12-11T23:04:57.828Z,6.67
2018-12-11T23:07:26.897Z,6.95
2018-12-11T23:09:56.259Z,12.25
2018-12-11T23:12:25.360Z,8.88
2018-12-11T23:14:54.929Z,11.30
2018-12-11T23:17:24.819Z,8.53
2018-12-11T23:19:53.992Z,7.45
2018-12-11T23:22:23.028Z,7.28
2018-12-11T23:24:53.192Z,6.42
2018-12-11T23:27:22.742Z,5.15
2018-12-11T23:29:52.574Z,5.05
2018-12-11T23:32:21.677Z,5.67
2018-12-11T23:34:52.366Z,5.30
2018-12-11T23:37:21.820Z,7.37
2018-12-11T23:39:50.907Z,7.28
2018-12-11T23:42:20.008Z,5.10
2018-12-11T23:44:49.060Z,5.33
2018-12-11T23:47:19.087Z,5.75
2018-12-11T23:49:49.647Z,6.28
2018-12-11T23:52:20.139Z,5.40
2018-12-11T23:54:49.852Z,10.75
2018-12-11T23:57:19.656Z,13.58
2018-12-11T23:59:48.730Z,6.08
